Time;durP1;ratioP1;P1;durP2;ratioP2;P2;SDS_P1;SDS_P2;PMS_P1;PMS_P2;Temp;Humidity;BMP_temperature;BMP_pressure;BME280_temperature;BME280_humidity;BME280_pressure;Samples;Min_cycle;Max_cycle;Signal;HPM_P1;HPM_P2
2023/04/08 00:01:14;;;;;;;10.03;7.73;;;;;;;7.49;100.00;99004.75;5019111;28;20231;-67
2023/04/08 00:03:41;;;;;;;11.53;7.80;;;;;;;7.48;100.00;99014.31;4989795;28;20850;-67
2023/04/08 00:06:08;;;;;;;11.17;7.73;;;;;;;7.50;100.00;99009.00;5019043;28;20232;-67
2023/04/08 00:08:34;;;;;;;11.00;8.13;;;;;;;7.50;100.00;99006.41;4999665;28;20222;-67
2023/04/08 00:11:01;;;;;;;13.63;8.90;;;;;;;7.47;100.00;99006.66;5018754;28;20247;-67
2023/04/08 00:13:28;;;;;;;13.73;9.47;;;;;;;7.50;100.00;99015.00;5014583;28;20217;-67
2023/04/08 00:15:54;;;;;;;13.27;8.80;;;;;;;7.48;100.00;99011.69;5019431;28;20267;-67
2023/04/08 00:18:22;;;;;;;11.17;8.07;;;;;;;7.48;100.00;99010.91;5016629;28;20593;-67
2023/04/08 00:20:49;;;;;;;13.77;9.07;;;;;;;7.43;100.00;99008.66;5017348;28;20589;-67
2023/04/08 00:23:16;;;;;;;10.70;8.13;;;;;;;7.47;100.00;99009.25;5019256;28;20912;-67
2023/04/08 00:25:42;;;;;;;13.27;8.07;;;;;;;7.44;100.00;99010.28;5016282;28;20256;-67
2023/04/08 00:28:09;;;;;;;13.20;8.60;;;;;;;7.45;100.00;99005.94;4994579;28;20235;-67
2023/04/08 00:30:36;;;;;;;12.07;8.50;;;;;;;7.43;100.00;99008.66;4986776;28;20309;-67
2023/04/08 00:33:03;;;;;;;12.60;9.13;;;;;;;7.41;100.00;99004.53;5018254;28;20226;-68
2023/04/08 00:35:31;;;;;;;13.40;8.60;;;;;;;7.43;100.00;99000.03;5017999;28;20718;-67
2023/04/08 00:37:57;;;;;;;11.75;9.20;;;;;;;7.49;100.00;99002.16;5008794;28;20784;-67
2023/04/08 00:40:26;;;;;;;11.93;8.27;;;;;;;7.48;100.00;99011.69;5006823;28;20260;-67
2023/04/08 00:42:53;;;;;;;14.43;9.40;;;;;;;7.44;100.00;98999.09;5001937;28;20233;-67
2023/04/08 00:45:20;;;;;;;12.03;8.43;;;;;;;7.43;100.00;99000.84;4990220;28;20325;-67
2023/04/08 00:47:51;;;;;;;12.60;8.93;;;;;;;7.43;100.00;99005.25;5011017;28;20234;-67
2023/04/08 00:50:18;;;;;;;11.27;8.30;;;;;;;7.43;100.00;99007.84;5017720;28;20237;-67
2023/04/08 00:52:49;;;;;;;11.60;8.07;;;;;;;7.41;100.00;99010.56;4966350;28;20308;-67
2023/04/08 00:55:16;;;;;;;11.93;8.57;;;;;;;7.43;100.00;99013.03;4999900;28;20405;-67
2023/04/08 00:57:43;;;;;;;12.33;8.60;;;;;;;7.42;100.00;99013.97;5014926;28;20237;-67
2023/04/08 01:00:11;;;;;;;12.60;8.73;;;;;;;7.41;100.00;99005.38;4991706;28;20246;-67
2023/04/08 01:02:45;;;;;;;12.17;8.70;;;;;;;7.39;100.00;99007.25;4997961;28;20226;-67
2023/04/08 01:05:16;;;;;;;13.57;8.30;;;;;;;7.38;100.00;99009.03;5008103;28;20228;-67
2023/04/08 01:07:48;;;;;;;12.40;8.93;;;;;;;7.38;100.00;99014.22;5015538;28;20616;-68
2023/04/08 01:10:22;;;;;;;13.67;8.90;;;;;;;7.35;100.00;99011.06;4988023;28;20228;-67
2023/04/08 01:12:53;;;;;;;13.13;8.30;;;;;;;7.36;100.00;99012.69;4988156;28;20238;-67
2023/04/08 01:15:20;;;;;;;11.23;8.50;;;;;;;7.37;100.00;99015.16;4983445;28;20235;-67
2023/04/08 01:17:50;;;;;;;11.03;8.20;;;;;;;7.37;100.00;99024.75;4992952;28;20248;-67
2023/04/08 01:20:17;;;;;;;12.30;9.47;;;;;;;7.38;100.00;99022.00;5019972;28;20577;-67
2023/04/08 01:23:02;;;;;;;12.23;8.03;;;;;;;7.37;100.00;99022.13;5017056;28;20617;-67
2023/04/08 01:25:33;;;;;;;11.03;8.20;;;;;;;7.34;100.00;99030.16;5013825;28;20241;-67
2023/04/08 01:28:07;;;;;;;16.00;9.30;;;;;;;7.35;100.00;99022.25;4993925;28;20236;-67
2023/04/08 01:30:35;;;;;;;13.80;8.73;;;;;;;7.33;100.00;99023.31;4988667;28;20248;-67
2023/04/08 01:33:03;;;;;;;12.73;8.50;;;;;;;7.37;100.00;99016.94;4999537;28;20273;-67
2023/04/08 01:35:31;;;;;;;13.37;8.80;;;;;;;7.34;100.00;99024.97;4955904;28;20427;-67
2023/04/08 01:37:59;;;;;;;12.03;8.80;;;;;;;7.37;100.00;99014.34;4999019;28;20314;-67
2023/04/08 01:40:26;;;;;;;12.97;8.70;;;;;;;7.40;100.00;99019.31;4967851;28;20440;-67
2023/04/08 01:42:56;;;;;;;13.13;8.33;;;;;;;7.35;100.00;99013.66;5017806;28;20249;-67
2023/04/08 01:45:25;;;;;;;11.33;8.27;;;;;;;7.34;100.00;99012.81;5015052;28;20246;-67
2023/04/08 01:47:53;;;;;;;12.13;8.53;;;;;;;7.31;100.00;99026.03;5015148;28;20234;-67
2023/04/08 01:50:21;;;;;;;11.53;8.30;;;;;;;7.33;100.00;99020.72;4940072;28;20711;-68
2023/04/08 01:52:49;;;;;;;12.67;8.67;;;;;;;7.35;100.00;99011.06;4957870;28;20240;-67
2023/04/08 01:55:16;;;;;;;11.87;8.90;;;;;;;7.30;100.00;99013.19;4989880;28;20811;-67
2023/04/08 01:57:49;;;;;;;14.13;8.53;;;;;;;7.32;100.00;99019.88;4989931;28;20237;-67
2023/04/08 02:00:20;;;;;;;12.53;8.60;;;;;;;7.31;100.00;99009.63;4994806;28;20236;-67
2023/04/08 02:02:49;;;;;;;14.03;9.33;;;;;;;7.29;100.00;99008.94;5015425;28;20231;-67
2023/04/08 02:05:16;;;;;;;14.03;9.63;;;;;;;7.29;100.00;99012.34;4999498;28;20227;-67
2023/04/08 02:07:44;;;;;;;13.20;9.33;;;;;;;7.29;100.00;99004.53;4996803;28;20227;-67
2023/04/08 02:10:11;;;;;;;12.20;8.80;;;;;;;7.31;100.00;99010.44;5015966;28;20298;-68
2023/04/08 02:12:39;;;;;;;13.93;9.87;;;;;;;7.29;100.00;99009.75;5013731;28;22062;-67
2023/04/08 02:15:11;;;;;;;12.87;9.37;;;;;;;7.28;100.00;99015.88;4999637;28;20320;-67
2023/04/08 02:17:44;;;;;;;12.37;9.43;;;;;;;7.29;100.00;99025.31;4998811;28;20279;-67
2023/04/08 02:20:17;;;;;;;13.17;9.10;;;;;;;7.29;100.00;99016.72;4999530;28;20312;-68
2023/04/08 02:22:48;;;;;;;11.57;8.70;;;;;;;7.28;100.00;99015.06;4984010;28;20241;-68
2023/04/08 02:25:17;;;;;;;16.57;9.67;;;;;;;7.28;100.00;99015.06;5006197;28;20357;-67
2023/04/08 02:27:47;;;;;;;12.60;9.10;;;;;;;7.26;100.00;99016.97;4988754;28;20241;-67
2023/04/08 02:30:15;;;;;;;13.37;9.27;;;;;;;7.22;100.00;99017.19;4990177;28;20224;-67
2023/04/08 02:32:43;;;;;;;13.33;9.40;;;;;;;7.23;100.00;99013.66;5004892;28;20303;-67
2023/04/08 02:35:14;;;;;;;14.27;9.90;;;;;;;7.23;100.00;99018.84;4996166;28;20226;-67
2023/04/08 02:37:41;;;;;;;13.90;9.20;;;;;;;7.24;100.00;99024.84;4996293;28;20234;-68
2023/04/08 02:40:23;;;;;;;14.40;9.20;;;;;;;7.15;100.00;99018.63;4989967;28;20236;-68
2023/04/08 02:42:50;;;;;;;14.20;9.73;;;;;;;7.14;100.00;99019.56;4996670;28;20244;-67
2023/04/08 02:45:17;;;;;;;15.50;9.83;;;;;;;7.11;100.00;99022.41;5015744;28;20222;-67
2023/04/08 02:47:44;;;;;;;15.37;10.23;;;;;;;7.11;100.00;99021.56;4996340;28;20311;-67
2023/04/08 02:50:11;;;;;;;14.30;9.37;;;;;;;7.08;100.00;99014.84;5016304;28;20282;-67
2023/04/08 02:52:39;;;;;;;15.47;9.63;;;;;;;7.04;100.00;99014.25;4994725;28;20596;-67
2023/04/08 02:55:08;;;;;;;12.67;9.17;;;;;;;7.07;100.00;99013.19;4999494;28;20584;-67
2023/04/08 02:57:35;;;;;;;12.80;9.23;;;;;;;7.06;100.00;99012.34;5013325;28;20237;-67
2023/04/08 03:00:08;;;;;;;15.43;10.20;;;;;;;7.03;100.00;99010.00;5016353;28;20233;-67
2023/04/08 03:02:34;;;;;;;15.47;10.23;;;;;;;7.11;100.00;99017.22;5004136;28;20224;-67
2023/04/08 03:05:04;;;;;;;15.83;10.10;;;;;;;7.10;100.00;99015.56;5012650;28;20252;-67
2023/04/08 03:07:30;;;;;;;15.23;9.73;;;;;;;7.08;100.00;99014.84;5002457;28;20229;-67
2023/04/08 03:09:59;;;;;;;14.20;10.17;;;;;;;7.08;100.00;99017.44;5017369;28;20256;-67
2023/04/08 03:12:26;;;;;;;18.23;10.37;;;;;;;7.07;100.00;99016.59;4994693;28;20243;-67
2023/04/08 03:14:52;;;;;;;17.10;10.67;;;;;;;7.06;100.00;99009.75;5009111;28;20229;-67
2023/04/08 03:17:19;;;;;;;14.50;9.60;;;;;;;7.06;100.00;99009.75;5010461;28;20224;-67
2023/04/08 03:19:46;;;;;;;16.13;10.73;;;;;;;7.03;100.00;99009.19;5019679;28;20233;-67
2023/04/08 03:22:13;;;;;;;14.57;10.30;;;;;;;6.99;100.00;99005.97;5023236;28;20295;-67
2023/04/08 03:24:40;;;;;;;13.80;9.03;;;;;;;6.99;100.00;99012.97;5008922;28;20716;-67
2023/04/08 03:27:08;;;;;;;14.97;8.67;;;;;;;7.00;100.00;99009.41;5019501;28;20221;-67
2023/04/08 03:29:34;;;;;;;12.97;9.00;;;;;;;7.01;100.00;99011.06;5018546;28;20298;-67
2023/04/08 03:32:01;;;;;;;15.40;9.73;;;;;;;6.96;100.00;99014.00;5247075;22;20644;-58
2023/04/08 03:34:27;;;;;;;15.00;9.67;;;;;;;6.93;100.00;99020.28;4999068;28;20228;-58
2023/04/08 03:36:54;;;;;;;12.37;8.93;;;;;;;6.91;100.00;99013.53;5009448;28;20300;-58
2023/04/08 03:39:21;;;;;;;14.13;9.17;;;;;;;6.90;100.00;99023.09;4997580;28;20593;-58
2023/04/08 03:41:47;;;;;;;13.60;9.30;;;;;;;6.89;100.00;99018.03;5022620;28;20233;-58
2023/04/08 03:44:15;;;;;;;16.37;9.77;;;;;;;6.89;100.00;99018.84;5010309;28;20685;-58
2023/04/08 03:46:42;;;;;;;15.53;9.20;;;;;;;6.87;100.00;99022.53;5013216;28;20248;-58
2023/04/08 03:49:08;;;;;;;18.27;10.43;;;;;;;6.83;100.00;99019.31;5019161;28;20236;-58
2023/04/08 03:51:35;;;;;;;14.50;9.70;;;;;;;6.86;100.00;99026.06;5013407;28;20257;-57
2023/04/08 03:54:01;;;;;;;13.47;9.57;;;;;;;6.84;100.00;99023.56;5025057;28;20744;-57
2023/04/08 03:56:28;;;;;;;15.57;10.10;;;;;;;6.85;100.00;99024.41;5014311;28;20240;-57
2023/04/08 03:58:55;;;;;;;16.13;9.80;;;;;;;6.82;100.00;99025.44;5018062;28;20232;-57
2023/04/08 04:01:23;;;;;;;13.53;9.57;;;;;;;6.86;100.00;99026.06;5014984;28;20231;-57
2023/04/08 04:03:49;;;;;;;13.87;9.97;;;;;;;6.87;100.00;99020.75;4999484;28;20831;-57
2023/04/08 04:06:16;;;;;;;13.83;9.53;;;;;;;6.85;100.00;99021.81;5018809;28;20229;-57
2023/04/08 04:08:43;;;;;;;14.23;9.67;;;;;;;6.88;100.00;99027.59;5015365;28;20240;-57
2023/04/08 04:11:09;;;;;;;14.27;9.90;;;;;;;6.90;100.00;99017.06;5018975;28;20234;-57
2023/04/08 04:13:36;;;;;;;14.90;10.03;;;;;;;6.88;100.00;99019.78;5019712;28;20233;-57
2023/04/08 04:16:02;;;;;;;16.53;10.73;;;;;;;6.91;100.00;99021.31;5019269;28;20237;-57
2023/04/08 04:18:30;;;;;;;13.17;9.07;;;;;;;6.92;100.00;99018.63;5015156;28;20237;-57
2023/04/08 04:20:57;;;;;;;13.07;9.57;;;;;;;6.92;100.00;99022.97;5018235;28;20228;-57
2023/04/08 04:23:24;;;;;;;15.57;9.37;;;;;;;6.92;100.00;99030.75;5014967;28;20221;-57
2023/04/08 04:25:51;;;;;;;15.90;9.10;;;;;;;6.89;100.00;99025.81;5021607;28;20249;-57
2023/04/08 04:28:17;;;;;;;14.10;9.00;;;;;;;6.92;100.00;99036.78;5021543;28;20220;-56
2023/04/08 04:30:44;;;;;;;12.63;9.47;;;;;;;6.99;100.00;99031.94;5015418;28;20738;-57
2023/04/08 04:33:11;;;;;;;14.60;10.13;;;;;;;6.98;100.00;99035.47;5000702;28;20315;-56
2023/04/08 04:35:39;;;;;;;16.37;10.40;;;;;;;6.97;100.00;99027.81;4988463;28;20222;-57
2023/04/08 04:38:09;;;;;;;15.73;11.27;;;;;;;6.93;100.00;99030.66;5019765;28;20227;-57
2023/04/08 04:40:36;;;;;;;15.13;10.80;;;;;;;6.94;100.00;99032.31;5020130;28;20217;-57
2023/04/08 04:43:02;;;;;;;13.90;10.50;;;;;;;6.96;100.00;99036.56;5019715;28;20229;-57
2023/04/08 04:45:29;;;;;;;15.77;11.07;;;;;;;6.91;100.00;99042.91;5013620;28;20608;-57
2023/04/08 04:47:56;;;;;;;15.63;11.43;;;;;;;6.95;100.00;99030.53;5019578;28;20225;-57
2023/04/08 04:50:22;;;;;;;17.33;11.80;;;;;;;6.92;100.00;99041.97;5015387;28;20232;-57
2023/04/08 04:52:50;;;;;;;18.07;12.23;;;;;;;6.91;100.00;99045.50;5010682;28;20237;-57
2023/04/08 04:55:17;;;;;;;19.03;13.50;;;;;;;6.89;100.00;99044.81;5018739;28;20233;-56
2023/04/08 04:57:44;;;;;;;17.93;12.83;;;;;;;6.89;100.00;99047.41;5015979;28;20235;-57
2023/04/08 05:00:11;;;;;;;17.47;12.83;;;;;;;6.91;100.00;99048.09;5018674;28;20317;-57
2023/04/08 05:02:38;;;;;;;20.83;12.23;;;;;;;6.89;100.00;99057.78;5014437;28;20600;-56
2023/04/08 05:05:05;;;;;;;20.13;13.80;;;;;;;6.88;100.00;99048.34;5019835;28;20229;-57
2023/04/08 05:07:35;;;;;;;18.80;13.00;;;;;;;6.91;100.00;99048.09;5019658;28;20219;-57
2023/04/08 05:10:04;;;;;;;18.17;12.73;;;;;;;6.91;100.00;99061.09;5020443;28;20279;-56
2023/04/08 05:12:31;;;;;;;17.90;12.37;;;;;;;6.94;100.00;99055.66;5020677;28;20228;-57
2023/04/08 05:14:58;;;;;;;17.47;13.03;;;;;;;6.92;100.00;99060.16;5017856;28;20246;-57
2023/04/08 05:17:25;;;;;;;18.70;13.37;;;;;;;6.94;100.00;99055.66;5014028;28;20236;-55
2023/04/08 05:19:52;;;;;;;19.27;12.93;;;;;;;6.95;100.00;99069.44;5021727;28;20226;-57
2023/04/08 05:22:18;;;;;;;16.77;12.00;;;;;;;6.99;100.00;99067.47;5020358;28;20305;-57
2023/04/08 05:24:45;;;;;;;17.60;12.87;;;;;;;7.00;100.00;99064.72;5020094;28;20565;-55
2023/04/08 05:27:13;;;;;;;19.27;12.67;;;;;;;7.04;100.00;99063.56;4988182;28;20227;-56
2023/04/08 05:29:40;;;;;;;19.27;12.50;;;;;;;7.04;100.00;99062.75;5019230;28;20227;-56
2023/04/08 05:32:07;;;;;;;18.37;12.30;;;;;;;7.06;100.00;99077.25;5019653;28;20264;-54
2023/04/08 05:34:33;;;;;;;16.80;11.93;;;;;;;7.09;100.00;99068.41;4995975;28;20244;-56
2023/04/08 05:37:00;;;;;;;17.00;12.10;;;;;;;7.20;100.00;99076.22;5017619;28;20226;-55
2023/04/08 05:39:26;;;;;;;18.57;12.37;;;;;;;7.21;100.00;99075.25;5012910;28;20246;-56
2023/04/08 05:41:53;;;;;;;16.30;12.43;;;;;;;7.16;100.00;99074.78;5018531;28;20709;-56
2023/04/08 05:44:21;;;;;;;16.20;12.20;;;;;;;7.15;100.00;99074.91;5018322;28;20634;-55
2023/04/08 05:46:48;;;;;;;19.17;12.87;;;;;;;7.18;100.00;99079.84;5019987;28;20589;-55
2023/04/08 05:49:16;;;;;;;19.87;13.30;;;;;;;7.21;100.00;99077.88;5020654;28;20220;-57
2023/04/08 05:51:42;;;;;;;16.43;11.43;;;;;;;7.21;100.00;99084.81;5013278;28;20243;-56
2023/04/08 05:54:09;;;;;;;17.27;12.47;;;;;;;7.23;100.00;99088.97;5016900;28;20240;-55
2023/04/08 05:56:35;;;;;;;19.40;13.27;;;;;;;7.28;100.00;99086.00;5014033;28;20553;-56
2023/04/08 05:59:02;;;;;;;17.40;11.90;;;;;;;7.33;100.00;99088.25;5018401;28;20232;-57
2023/04/08 06:01:30;;;;;;;17.77;12.57;;;;;;;7.30;100.00;99091.09;5016814;28;21155;-57
2023/04/08 06:03:57;;;;;;;31.20;19.00;;;;;;;7.30;100.00;99096.28;5017406;28;20799;-57
2023/04/08 06:06:24;;;;;;;19.13;13.73;;;;;;;7.32;100.00;99094.38;5013166;28;20228;-56
2023/04/08 06:08:51;;;;;;;59.57;25.50;;;;;;;7.34;100.00;99100.28;5017343;28;20233;-55
2023/04/08 06:11:18;;;;;;;28.70;16.60;;;;;;;7.36;100.00;99094.03;5016452;28;20637;-55
2023/04/08 06:13:44;;;;;;;16.00;11.80;;;;;;;7.43;100.00;99111.72;5013640;28;20251;-54
2023/04/08 06:16:12;;;;;;;17.37;12.10;;;;;;;7.36;100.00;99101.81;5017440;28;20250;-55
2023/04/08 06:18:40;;;;;;;17.63;12.10;;;;;;;7.46;100.00;99111.50;5014386;28;28787;-56
2023/04/08 06:21:07;;;;;;;21.77;13.50;;;;;;;7.55;100.00;99105.59;5018479;28;20264;-56
2023/04/08 06:23:33;;;;;;;18.93;13.13;;;;;;;7.67;100.00;99111.59;5017994;28;20244;-56
2023/04/08 06:26:00;;;;;;;23.17;16.10;;;;;;;7.76;100.00;99112.66;5017976;28;20656;-55
2023/04/08 06:28:28;;;;;;;21.27;13.40;;;;;;;7.85;100.00;99105.88;5014135;28;20217;-54
2023/04/08 06:30:55;;;;;;;31.63;24.53;;;;;;;7.90;100.00;99111.56;5016854;28;20784;-53
2023/04/08 06:33:22;;;;;;;21.30;13.47;;;;;;;7.98;100.00;99109.16;5013904;28;20237;-55
2023/04/08 06:35:50;;;;;;;16.63;12.00;;;;;;;8.12;100.00;99108.91;5015544;28;20239;-56
2023/04/08 06:38:16;;;;;;;15.97;12.07;;;;;;;8.19;100.00;99119.63;5014900;28;20768;-57
2023/04/08 06:40:43;;;;;;;16.87;12.20;;;;;;;8.31;100.00;99115.22;5011366;28;20244;-56
2023/04/08 06:43:10;;;;;;;17.77;11.57;;;;;;;8.47;100.00;99125.19;5011854;28;20784;-56
2023/04/08 06:45:41;;;;;;;15.23;10.83;;;;;;;8.54;100.00;99120.34;4994416;28;20586;-56
2023/04/08 06:48:08;;;;;;;15.23;10.70;;;;;;;8.60;100.00;99122.44;5017078;28;20228;-56
2023/04/08 06:50:35;;;;;;;14.80;10.40;;;;;;;8.53;100.00;99123.88;5011421;28;20231;-55
2023/04/08 06:53:03;;;;;;;15.83;11.57;;;;;;;8.55;100.00;99125.44;5020550;28;20230;-56
2023/04/08 06:55:30;;;;;;;16.13;11.60;;;;;;;8.39;100.00;99127.59;5021993;28;20581;-55
2023/04/08 06:57:56;;;;;;;15.87;11.97;;;;;;;8.43;100.00;99129.00;5021351;28;20256;-57
2023/04/08 07:00:23;;;;;;;15.80;11.73;;;;;;;8.54;100.00;99130.75;5017957;28;20237;-57
2023/04/08 07:02:49;;;;;;;16.23;12.43;;;;;;;8.71;100.00;99132.78;5019370;28;20424;-54
2023/04/08 07:05:16;;;;;;;14.90;10.87;;;;;;;8.78;100.00;99127.09;5021430;28;20237;-54
2023/04/08 07:07:43;;;;;;;14.93;10.70;;;;;;;8.80;99.77;99136.44;5015105;28;20246;-54
2023/04/08 07:10:12;;;;;;;13.17;10.03;;;;;;;8.90;100.00;99130.47;5024497;28;20234;-56
2023/04/08 07:12:39;;;;;;;17.77;11.00;;;;;;;9.07;98.92;99132.47;5017448;28;20247;-54
2023/04/08 07:15:07;;;;;;;15.50;11.17;;;;;;;9.11;97.97;99133.03;5022322;28;20238;-54
2023/04/08 07:17:33;;;;;;;16.87;11.37;;;;;;;9.22;98.95;99132.97;5020874;28;20238;-55
2023/04/08 07:20:00;;;;;;;16.40;11.23;;;;;;;9.59;98.07;99136.81;5021539;28;20231;-54
2023/04/08 07:22:27;;;;;;;15.77;10.60;;;;;;;9.88;96.22;99136.09;5016974;28;20226;-56
2023/04/08 07:24:54;;;;;;;15.50;11.10;;;;;;;10.06;95.32;99135.44;5019891;28;20239;-55
2023/04/08 07:27:22;;;;;;;14.47;10.83;;;;;;;10.25;93.93;99140.66;5017409;28;20711;-56
2023/04/08 07:29:52;;;;;;;14.30;11.17;;;;;;;10.41;92.98;99147.16;5020229;28;20236;-56
2023/04/08 07:32:19;;;;;;;16.17;10.33;;;;;;;10.46;92.30;99151.03;5016211;28;20285;-55
2023/04/08 07:34:46;;;;;;;12.63;10.10;;;;;;;10.32;88.73;99146.16;5023675;28;20233;-56
2023/04/08 07:37:12;;;;;;;16.97;11.60;;;;;;;10.12;89.37;99148.75;5022411;28;20246;-54
2023/04/08 07:39:39;;;;;;;14.63;11.43;;;;;;;10.10;90.79;99155.88;5017678;28;20648;-55
2023/04/08 07:42:06;;;;;;;18.57;12.97;;;;;;;10.12;89.35;99155.75;5022112;28;20244;-56
2023/04/08 07:44:34;;;;;;;18.63;13.43;;;;;;;9.99;91.05;99156.84;5022059;28;20231;-56
2023/04/08 07:47:00;;;;;;;21.47;13.10;;;;;;;10.02;90.80;99172.22;5021560;28;20805;-55
2023/04/08 07:49:27;;;;;;;19.57;13.57;;;;;;;10.09;92.80;99161.22;5017262;28;20229;-54
2023/04/08 07:51:54;;;;;;;19.10;12.23;;;;;;;10.13;92.09;99167.81;5010266;28;20248;-56
2023/04/08 07:54:21;;;;;;;20.00;13.07;;;;;;;10.29;91.29;99168.13;4992466;28;20250;-56
2023/04/08 07:56:47;;;;;;;17.67;12.37;;;;;;;10.41;91.85;99165.41;5023490;28;20327;-53
2023/04/08 07:59:14;;;;;;;13.87;10.70;;;;;;;10.46;92.46;99171.06;5023258;28;20288;-54
2023/04/08 08:01:42;;;;;;;19.10;12.60;;;;;;;10.28;90.30;99168.28;5016628;28;20294;-56
2023/04/08 08:04:09;;;;;;;17.97;11.73;;;;;;;9.94;91.08;99171.22;5018521;28;20338;-56
2023/04/08 08:06:35;;;;;;;17.37;11.67;;;;;;;10.04;92.17;99175.53;5016523;28;20840;-54
2023/04/08 08:09:02;;;;;;;15.03;10.67;;;;;;;10.02;91.74;99177.44;5021808;28;20236;-56
2023/04/08 08:11:29;;;;;;;18.90;11.03;;;;;;;10.06;91.05;99172.75;5020987;28;20233;-56
2023/04/08 08:13:56;;;;;;;17.53;12.10;;;;;;;10.15;91.54;99184.16;5018558;28;20279;-56
2023/04/08 08:16:25;;;;;;;15.83;11.93;;;;;;;10.41;89.84;99176.69;5015206;28;20222;-54
2023/04/08 08:18:53;;;;;;;16.33;10.70;;;;;;;10.58;88.35;99179.59;5018788;28;20751;-56
2023/04/08 08:21:20;;;;;;;15.40;10.63;;;;;;;10.82;88.41;99179.16;5015428;28;20243;-56
2023/04/08 08:23:47;;;;;;;16.73;10.50;;;;;;;11.08;87.36;99183.81;5022447;28;20239;-55
2023/04/08 08:26:13;;;;;;;16.40;10.60;;;;;;;11.26;84.69;99183.06;5022473;28;20235;-54
2023/04/08 08:28:40;;;;;;;11.70;7.87;;;;;;;11.41;81.15;99180.84;5015907;28;20235;-54
2023/04/08 08:31:07;;;;;;;9.30;6.50;;;;;;;10.84;79.69;99179.84;5019277;28;20253;-54
2023/04/08 08:33:34;;;;;;;10.80;7.10;;;;;;;10.57;80.58;99178.75;5016347;28;20227;-56
2023/04/08 08:36:03;;;;;;;36.63;30.23;;;;;;;10.08;82.95;99178.66;5021087;28;20318;-56
2023/04/08 08:38:30;;;;;;;9.87;7.10;;;;;;;10.48;81.75;99183.03;5019909;28;20737;-56
2023/04/08 08:40:58;;;;;;;8.33;6.50;;;;;;;10.58;81.04;99190.03;5020078;28;20230;-55
2023/04/08 08:43:25;;;;;;;9.60;6.37;;;;;;;10.76;82.08;99198.00;5014583;28;20233;-55
2023/04/08 08:45:52;;;;;;;9.43;5.93;;;;;;;11.28;83.04;99189.81;5017368;28;20238;-56
2023/04/08 08:48:19;;;;;;;9.20;6.07;;;;;;;11.72;76.62;99197.09;5017466;28;20239;-56
2023/04/08 08:50:46;;;;;;;9.27;6.00;;;;;;;11.74;75.74;99196.94;4996901;28;20234;-57
2023/04/08 08:53:14;;;;;;;8.37;5.90;;;;;;;11.41;74.50;99186.88;5021724;28;20227;-54
2023/04/08 08:55:40;;;;;;;10.37;7.83;;;;;;;11.70;78.21;99190.34;5013594;28;20577;-56
2023/04/08 08:58:07;;;;;;;7.37;5.63;;;;;;;12.03;75.36;99196.84;5020894;28;20722;-56
2023/04/08 09:00:35;;;;;;;7.70;5.70;;;;;;;12.02;73.60;99196.97;5015653;28;20706;-56
2023/04/08 09:03:23;;;;;;;10.17;6.33;;;;;;;12.01;73.85;99195.34;5019103;28;20245;-57
2023/04/08 09:05:51;;;;;;;9.93;6.00;;;;;;;12.34;75.35;99200.94;5014752;28;20243;-54
2023/04/08 09:08:28;;;;;;;10.13;6.77;;;;;;;12.37;70.02;99198.84;5021198;28;20243;-56
2023/04/08 09:10:56;;;;;;;13.07;8.23;;;;;;;12.48;69.15;99213.53;5018980;28;20231;-57
2023/04/08 09:13:23;;;;;;;8.47;5.90;;;;;;;12.74;69.69;99207.50;5020596;28;20234;-55
2023/04/08 09:16:02;;;;;;;12.23;7.63;;;;;;;12.53;69.92;99200.81;5021471;28;20247;-57
2023/04/08 09:18:29;;;;;;;11.10;7.80;;;;;;;12.79;70.27;99205.25;5013533;28;20224;-56
2023/04/08 09:20:55;;;;;;;9.03;7.00;;;;;;;13.17;68.83;99210.31;5021243;28;20328;-57
2023/04/08 09:23:22;;;;;;;12.57;9.23;;;;;;;12.92;68.50;99209.31;5018465;28;20239;-57
2023/04/08 09:25:50;;;;;;;13.60;9.23;;;;;;;12.76;72.49;99202.13;5021378;28;20225;-57
2023/04/08 09:28:20;;;;;;;15.43;9.47;;;;;;;12.28;71.51;99206.75;5021538;28;20586;-57
2023/04/08 09:30:47;;;;;;;14.00;9.20;;;;;;;12.36;70.10;99204.22;5015849;28;20278;-57
2023/04/08 09:33:14;;;;;;;13.10;9.87;;;;;;;11.93;68.91;99199.47;5018237;28;20223;-56
2023/04/08 09:35:40;;;;;;;19.60;11.10;;;;;;;11.62;71.11;99202.38;5019659;28;20252;-54
2023/04/08 09:38:07;;;;;;;13.73;10.27;;;;;;;11.60;72.57;99206.94;5019464;28;20219;-57
2023/04/08 09:40:35;;;;;;;14.90;11.27;;;;;;;11.49;75.08;99201.88;5013737;28;20609;-55
2023/04/08 09:43:05;;;;;;;16.60;11.40;;;;;;;11.59;72.84;99205.28;5017524;28;20662;-56
2023/04/08 09:45:36;;;;;;;15.23;11.73;;;;;;;11.51;70.95;99200.75;5013225;28;20718;-56
2023/04/08 09:48:10;;;;;;;17.60;12.47;;;;;;;11.35;69.32;99197.91;5020209;28;20227;-56
2023/04/08 09:50:42;;;;;;;16.50;11.80;;;;;;;11.46;71.23;99205.56;5019268;28;20239;-57
2023/04/08 09:53:15;;;;;;;17.70;11.23;;;;;;;11.06;72.51;99209.25;5012611;28;20237;-57
2023/04/08 09:55:43;;;;;;;17.33;12.37;;;;;;;10.86;69.04;99211.03;4988452;28;20284;-57
2023/04/08 09:58:17;;;;;;;18.57;12.37;;;;;;;10.89;70.81;99206.38;5017612;28;20239;-57
2023/04/08 10:00:49;;;;;;;16.00;10.90;;;;;;;11.69;68.59;99205.22;5014094;28;20248;-57
2023/04/08 10:03:26;;;;;;;15.07;11.40;;;;;;;12.02;71.08;99212.69;5017793;28;20227;-57
2023/04/08 10:05:55;;;;;;;15.97;12.17;;;;;;;12.48;64.30;99210.91;5016069;28;20230;-56
2023/04/08 10:08:23;;;;;;;15.00;11.40;;;;;;;12.42;65.69;99203.63;5014763;28;20241;-57
2023/04/08 10:10:50;;;;;;;14.83;11.50;;;;;;;12.45;66.30;99202.50;5012527;28;20244;-57
2023/04/08 10:13:18;;;;;;;15.70;11.23;;;;;;;12.60;67.14;99208.06;5013407;28;20326;-57
2023/04/08 10:15:46;;;;;;;14.40;10.13;;;;;;;12.52;67.83;99206.19;5012371;28;20240;-58
2023/04/08 10:18:36;;;;;;;15.30;10.77;;;;;;;12.44;67.11;99208.72;5009477;28;20238;-56
2023/04/08 10:21:03;;;;;;;19.83;13.00;;;;;;;12.23;68.58;99207.19;5014695;28;20277;-56
2023/04/08 10:24:06;;;;;;;14.63;10.27;;;;;;;12.48;68.71;99210.06;5002480;28;21218;-56
2023/04/08 10:26:37;;;;;;;13.63;9.70;;;;;;;12.68;69.10;99213.38;4908039;29;20231;-57
2023/04/08 10:29:33;;;;;;;21.40;14.50;;;;;;;12.80;67.14;99212.16;4913301;29;20246;-57
2023/04/08 10:32:01;;;;;;;18.17;12.40;;;;;;;12.83;68.02;99204.00;4982160;28;20237;-57
2023/04/08 10:34:28;;;;;;;13.90;10.10;;;;;;;13.16;65.49;99207.84;4997253;28;20248;-54
2023/04/08 10:36:57;;;;;;;13.10;9.37;;;;;;;13.43;67.23;99202.50;5014468;28;20228;-56
2023/04/08 10:39:26;;;;;;;16.00;10.93;;;;;;;13.96;63.52;99210.25;5010319;28;20224;-57
2023/04/08 10:41:53;;;;;;;11.90;8.90;;;;;;;14.27;61.52;99203.66;5020309;28;20876;-55
2023/04/08 10:44:21;;;;;;;11.33;9.27;;;;;;;14.34;57.23;99198.56;5017668;28;20229;-56
2023/04/08 10:46:50;;;;;;;15.33;10.23;;;;;;;13.88;58.02;99197.94;5002730;28;20659;-56
2023/04/08 10:49:18;;;;;;;13.10;10.77;;;;;;;13.68;58.31;99199.16;5028953;28;20230;-56
2023/04/08 10:51:46;;;;;;;13.67;10.20;;;;;;;13.22;60.33;99196.75;5002297;28;20234;-54
2023/04/08 10:54:15;;;;;;;11.70;9.57;;;;;;;13.72;59.37;99198.72;5021265;28;20320;-56
2023/04/08 10:56:46;;;;;;;13.17;10.30;;;;;;;13.68;57.38;99194.75;4991791;28;20733;-57
2023/04/08 10:59:15;;;;;;;12.63;10.20;;;;;;;13.12;59.64;99195.03;5021948;28;20225;-56
2023/04/08 11:01:45;;;;;;;13.63;10.80;;;;;;;13.06;61.43;99194.84;5020386;28;20236;-55
2023/04/08 11:04:14;;;;;;;15.07;10.40;;;;;;;13.05;60.06;99188.78;5004479;28;20240;-56
2023/04/08 11:06:42;;;;;;;12.20;10.53;;;;;;;12.82;60.97;99188.44;5020251;28;20233;-56
2023/04/08 11:09:10;;;;;;;14.43;11.00;;;;;;;13.02;59.38;99189.06;5012690;28;20251;-57
2023/04/08 11:11:36;;;;;;;15.17;11.70;;;;;;;12.95;58.10;99188.88;4988150;28;20228;-56
2023/04/08 11:14:04;;;;;;;14.93;11.87;;;;;;;13.14;58.15;99189.66;5009022;28;20260;-57
2023/04/08 11:16:31;;;;;;;14.33;11.20;;;;;;;13.39;56.32;99185.38;5017043;28;20625;-57
2023/04/08 11:18:58;;;;;;;14.10;11.70;;;;;;;13.15;54.24;99188.69;5027454;28;20236;-56
2023/04/08 11:21:28;;;;;;;12.87;10.80;;;;;;;12.69;54.78;99183.59;5004843;28;20699;-57
2023/04/08 11:23:55;;;;;;;15.43;11.13;;;;;;;13.22;55.66;99181.84;5018786;28;20246;-56
2023/04/08 11:26:21;;;;;;;12.43;10.13;;;;;;;13.49;53.11;99185.28;5019938;28;20592;-57